createdAt,value
2022-10-04T00:02:20.918Z,2.60
2022-10-04T00:05:01.201Z,3.10
2022-10-04T00:07:33.808Z,2.90
2022-10-04T00:10:24.572Z,3.08
2022-10-04T00:12:56.464Z,3.20
2022-10-04T00:15:27.843Z,2.70
2022-10-04T00:18:22.647Z,3.50
2022-10-04T00:20:53.366Z,2.90
2022-10-04T00:23:22.819Z,2.78
2022-10-04T00:25:50.869Z,3.15
2022-10-04T00:28:20.439Z,2.92
2022-10-04T00:31:08.760Z,2.92
2022-10-04T00:33:58.505Z,3.28
2022-10-04T00:36:24.874Z,2.85
2022-10-04T00:39:09.519Z,3.03
2022-10-04T00:42:05.167Z,2.95
2022-10-04T00:44:47.001Z,3.03
2022-10-04T00:47:43.987Z,2.88
2022-10-04T00:50:39.543Z,3.13
2022-10-04T00:53:50.367Z,2.38
2022-10-04T00:56:43.388Z,3.20
2022-10-04T00:59:27.276Z,2.78
2022-10-04T01:02:04.967Z,3.35
2022-10-04T01:04:48.238Z,3.05
2022-10-04T01:07:18.893Z,3.13
2022-10-04T01:09:52.343Z,2.42
2022-10-04T01:13:04.573Z,2.58
2022-10-04T01:18:36.028Z,2.75
2022-10-04T01:21:20.680Z,2.65
2022-10-04T01:24:13.238Z,2.70
2022-10-04T01:26:45.215Z,3.10
2022-10-04T01:29:25.102Z,2.90
2022-10-04T01:31:57.274Z,2.58
2022-10-04T01:34:30.639Z,3.13
2022-10-04T01:36:59.469Z,2.78
2022-10-04T01:39:28.086Z,3.03
2022-10-04T01:42:05.148Z,2.55
2022-10-04T01:44:59.476Z,3.15
2022-10-04T01:47:42.910Z,3.03
2022-10-04T01:50:23.304Z,2.67
2022-10-04T01:53:11.407Z,2.63
2022-10-04T01:55:41.704Z,2.40
2022-10-04T01:58:19.762Z,2.85
2022-10-04T02:00:55.542Z,2.67
2022-10-04T02:03:31.045Z,2.88
2022-10-04T02:06:01.925Z,2.72
2022-10-04T02:08:32.948Z,3.05
2022-10-04T02:11:01.980Z,2.40
2022-10-04T02:13:35.076Z,3.22
2022-10-04T02:16:03.288Z,2.85
2022-10-04T02:18:31.717Z,2.72
2022-10-04T02:20:59.673Z,3.20
2022-10-04T02:23:27.506Z,3.28
2022-10-04T02:25:54.491Z,3.08
2022-10-04T02:28:21.034Z,3.25
2022-10-04T02:31:09.360Z,2.80
2022-10-04T02:33:45.351Z,3.08
2022-10-04T02:36:13.241Z,3.67
2022-10-04T02:38:48.031Z,3.47
2022-10-04T02:41:23.879Z,3.40
2022-10-04T02:43:52.687Z,3.20
2022-10-04T02:46:33.492Z,3.10
2022-10-04T02:49:04.891Z,3.08
2022-10-04T02:51:43.985Z,3.33
2022-10-04T02:54:27.519Z,3.40
2022-10-04T02:56:56.517Z,3.08
2022-10-04T02:59:22.933Z,3.50
2022-10-04T03:01:54.151Z,3.55
2022-10-04T03:04:24.096Z,3.75
2022-10-04T03:06:52.302Z,3.10
2022-10-04T03:09:25.099Z,3.25
2022-10-04T03:11:56.037Z,3.40
2022-10-04T03:14:26.572Z,3.30
2022-10-04T03:16:55.805Z,3.05
2022-10-04T03:21:54.396Z,3.60
2022-10-04T03:24:27.156Z,3.08
2022-10-04T03:26:55.959Z,3.15
2022-10-04T03:29:26.981Z,3.38
2022-10-04T03:31:57.520Z,3.30
2022-10-04T03:34:46.770Z,3.63
2022-10-04T03:37:16.873Z,3.28
2022-10-04T03:39:46.490Z,3.42
2022-10-04T03:42:12.797Z,3.30
2022-10-04T03:44:39.688Z,4.00
2022-10-04T03:47:12.602Z,3.22
2022-10-04T03:49:41.071Z,3.50
2022-10-04T03:52:15.322Z,3.20
2022-10-04T03:54:42.560Z,3.67
2022-10-04T03:57:10.047Z,3.40
2022-10-04T03:59:37.493Z,3.25
2022-10-04T04:02:14.783Z,3.30
2022-10-04T04:05:03.467Z,3.10
2022-10-04T04:07:44.948Z,3.10
2022-10-04T04:13:01.191Z,3.03
2022-10-04T04:15:31.172Z,3.28
2022-10-04T04:18:03.576Z,3.50
2022-10-04T04:20:38.367Z,3.28
2022-10-04T04:23:11.753Z,3.42
2022-10-04T04:25:42.002Z,3.88
2022-10-04T04:28:39.888Z,3.65
2022-10-04T04:31:13.917Z,3.35
2022-10-04T04:34:00.420Z,3.30
2022-10-04T04:36:29.967Z,3.33
2022-10-04T04:39:37.485Z,4.00
2022-10-04T04:42:10.338Z,3.80
2022-10-04T04:44:40.115Z,3.60
2022-10-04T04:47:10.149Z,3.92
2022-10-04T04:49:40.241Z,3.85
2022-10-04T04:52:16.782Z,3.22
2022-10-04T04:54:47.050Z,3.30
2022-10-04T04:57:17.515Z,3.75
2022-10-04T04:59:52.829Z,3.58
2022-10-04T05:05:16.644Z,3.20
2022-10-04T05:07:43.581Z,3.60
2022-10-04T05:10:32.552Z,3.50
2022-10-04T05:13:01.167Z,3.25
2022-10-04T05:15:36.424Z,3.20
2022-10-04T05:20:49.647Z,3.08
2022-10-04T05:23:16.324Z,3.35
2022-10-04T05:25:42.840Z,3.50
2022-10-04T05:28:15.205Z,3.10
2022-10-04T05:30:50.714Z,3.10
2022-10-04T05:33:40.580Z,3.28
2022-10-04T05:36:42.355Z,3.38
2022-10-04T05:39:24.285Z,3.80
2022-10-04T05:42:16.625Z,2.83
2022-10-04T05:44:53.152Z,3.33
2022-10-04T05:47:24.031Z,3.53
2022-10-04T05:50:19.529Z,3.17
2022-10-04T05:52:49.992Z,3.45
2022-10-04T05:55:22.224Z,3.10
2022-10-04T05:57:54.260Z,3.28
2022-10-04T06:00:21.853Z,3.17
2022-10-04T06:03:07.380Z,3.72
2022-10-04T06:05:54.202Z,2.97
2022-10-04T06:08:34.763Z,3.53
2022-10-04T06:11:22.680Z,3.55
2022-10-04T06:14:07.419Z,3.58
2022-10-04T06:16:59.425Z,3.75
2022-10-04T06:19:32.061Z,3.65
2022-10-04T06:22:17.342Z,4.05
2022-10-04T06:24:52.128Z,4.25
2022-10-04T06:27:37.219Z,4.25
2022-10-04T06:30:13.026Z,4.50
2022-10-04T06:33:04.718Z,3.92
2022-10-04T06:36:16.027Z,3.90
2022-10-04T06:39:04.561Z,4.18
2022-10-04T06:41:49.332Z,3.80
2022-10-04T06:44:28.688Z,3.72
2022-10-04T06:47:13.127Z,3.92
2022-10-04T06:49:48.911Z,4.03
2022-10-04T06:52:29.872Z,4.43
2022-10-04T06:55:31.998Z,4.10
2022-10-04T06:58:41.504Z,4.68
2022-10-04T07:01:33.195Z,4.05
2022-10-04T07:05:07.078Z,4.28
2022-10-04T07:07:41.873Z,4.18
2022-10-04T07:10:08.285Z,4.20
2022-10-04T07:12:40.781Z,4.07
2022-10-04T07:15:19.557Z,4.32
2022-10-04T07:17:49.088Z,4.10
2022-10-04T07:20:30.788Z,4.30
2022-10-04T07:23:06.001Z,3.65
2022-10-04T07:28:26.986Z,4.05
2022-10-04T07:31:14.424Z,3.85
2022-10-04T07:33:48.874Z,4.13
2022-10-04T07:36:28.112Z,4.00
2022-10-04T07:39:07.313Z,4.35
2022-10-04T07:41:49.919Z,4.80
2022-10-04T07:44:28.114Z,3.92
2022-10-04T07:47:09.301Z,4.43
2022-10-04T07:49:40.109Z,4.13
2022-10-04T07:52:36.727Z,4.05
2022-10-04T07:55:46.631Z,3.83
2022-10-04T07:58:27.644Z,4.22
2022-10-04T08:01:15.293Z,4.50
2022-10-04T08:03:56.083Z,4.30
2022-10-04T08:06:35.412Z,3.50
2022-10-04T08:09:20.962Z,4.18
2022-10-04T08:12:05.424Z,4.28
2022-10-04T08:14:43.721Z,3.67
2022-10-04T08:17:17.671Z,3.95
2022-10-04T08:20:18.615Z,3.85
2022-10-04T08:23:12.997Z,3.85
2022-10-04T08:25:42.648Z,4.35
2022-10-04T08:29:10.103Z,4.53
2022-10-04T08:31:41.600Z,4.03
2022-10-04T08:34:33.377Z,3.67
2022-10-04T08:37:17.752Z,3.72
2022-10-04T08:40:08.648Z,4.03
2022-10-04T08:42:53.356Z,3.17
2022-10-04T08:48:18.220Z,3.47
2022-10-04T08:51:22.163Z,3.53
2022-10-04T08:53:48.752Z,3.50
2022-10-04T08:56:46.443Z,3.22
2022-10-04T08:59:16.146Z,3.53
2022-10-04T09:02:06.817Z,3.08
2022-10-04T09:04:51.659Z,3.53
2022-10-04T09:07:55.562Z,2.97
2022-10-04T09:10:50.723Z,3.03
2022-10-04T09:13:48.164Z,3.45
2022-10-04T09:16:14.596Z,2.78
2022-10-04T09:19:02.938Z,3.30
2022-10-04T09:21:47.437Z,3.33
2022-10-04T09:24:32.967Z,2.90
2022-10-04T09:27:53.289Z,3.08
2022-10-04T09:30:21.245Z,3.20
2022-10-04T09:33:12.814Z,2.92
2022-10-04T09:35:45.224Z,2.80
2022-10-04T09:38:26.874Z,3.38
2022-10-04T09:41:11.885Z,2.85
2022-10-04T09:44:02.555Z,3.00
2022-10-04T09:47:24.297Z,3.17
2022-10-04T09:50:05.720Z,2.97
2022-10-04T09:52:47.679Z,2.90
2022-10-04T09:55:34.446Z,3.53
2022-10-04T09:58:04.066Z,2.90
2022-10-04T10:00:41.769Z,3.35
2022-10-04T10:03:23.672Z,2.88
2022-10-04T10:05:58.950Z,2.70
2022-10-04T10:08:45.053Z,2.72
2022-10-04T10:11:39.266Z,2.80
2022-10-04T10:14:37.062Z,2.80
2022-10-04T10:17:47.759Z,3.25
2022-10-04T10:20:23.461Z,3.30
2022-10-04T10:23:01.141Z,3.42
2022-10-04T10:26:06.586Z,2.92
2022-10-04T10:29:10.087Z,3.13
2022-10-04T10:32:02.600Z,2.97
2022-10-04T10:34:34.725Z,3.20
2022-10-04T10:37:10.119Z,3.28
2022-10-04T10:39:58.145Z,3.05
2022-10-04T10:42:27.608Z,2.67
2022-10-04T10:45:19.747Z,2.55
2022-10-04T10:48:00.529Z,2.85
2022-10-04T10:53:41.439Z,2.58
2022-10-04T10:56:35.659Z,3.10
2022-10-04T10:59:39.776Z,2.67
2022-10-04T11:02:10.243Z,2.55
2022-10-04T11:04:55.421Z,2.58
2022-10-04T11:07:37.365Z,2.92
2022-10-04T11:10:41.847Z,2.83
2022-10-04T11:13:08.452Z,2.40
2022-10-04T11:16:29.245Z,2.63
2022-10-04T11:19:50.298Z,3.03
2022-10-04T11:22:25.146Z,2.70
2022-10-04T11:25:12.064Z,2.45
2022-10-04T11:27:59.749Z,2.10
2022-10-04T11:30:30.496Z,2.40
2022-10-04T11:33:21.861Z,2.45
2022-10-04T11:35:58.929Z,2.40
2022-10-04T11:38:48.390Z,2.13
2022-10-04T11:41:39.818Z,2.22
2022-10-04T11:44:17.675Z,1.98
2022-10-04T11:47:01.100Z,2.58
2022-10-04T11:49:42.167Z,2.00
2022-10-04T11:52:47.079Z,2.10
2022-10-04T11:55:38.297Z,1.80
2022-10-04T11:58:29.293Z,1.80
2022-10-04T12:01:01.734Z,1.88
2022-10-04T12:04:15.495Z,2.10
2022-10-04T12:07:03.133Z,2.08
2022-10-04T12:09:48.088Z,1.98
2022-10-04T12:12:49.846Z,2.38
2022-10-04T12:15:19.228Z,2.20
2022-10-04T12:18:06.157Z,2.70
2022-10-04T12:21:10.519Z,2.28
2022-10-04T12:23:49.166Z,2.28
2022-10-04T12:26:21.488Z,2.40
2022-10-04T12:29:31.573Z,2.40
2022-10-04T12:32:04.758Z,2.72
2022-10-04T12:34:36.266Z,2.72
2022-10-04T12:37:13.697Z,2.47
2022-10-04T12:40:18.032Z,2.80
2022-10-04T12:42:53.080Z,2.55
2022-10-04T12:45:38.368Z,2.38
2022-10-04T12:48:33.057Z,2.42
2022-10-04T12:51:27.557Z,2.80
2022-10-04T12:54:35.488Z,3.10
2022-10-04T12:57:33.118Z,2.20
2022-10-04T13:00:15.415Z,2.70
2022-10-04T13:02:48.070Z,2.60
2022-10-04T13:05:29.587Z,2.30
2022-10-04T13:08:11.591Z,2.45
2022-10-04T13:11:05.780Z,2.22
2022-10-04T13:13:50.801Z,2.30
2022-10-04T13:19:50.451Z,2.33
2022-10-04T13:22:31.920Z,2.42
2022-10-04T13:25:28.035Z,2.28
2022-10-04T13:28:05.266Z,2.30
2022-10-04T13:30:50.676Z,2.50
2022-10-04T13:33:25.807Z,2.65
2022-10-04T13:36:02.083Z,2.50
2022-10-04T13:38:47.089Z,2.40
2022-10-04T13:41:54.128Z,2.42
2022-10-04T13:44:26.583Z,2.70
2022-10-04T13:47:08.285Z,2.30
2022-10-04T13:50:02.960Z,2.30
2022-10-04T13:53:20.166Z,2.60
2022-10-04T13:56:36.863Z,2.72
2022-10-04T13:59:21.699Z,2.65
2022-10-04T14:02:23.378Z,2.17
2022-10-04T14:04:58.640Z,2.20
2022-10-04T14:08:17.293Z,2.13
2022-10-04T14:11:09.064Z,2.60
2022-10-04T14:13:56.594Z,2.47
2022-10-04T14:16:41.970Z,2.08
2022-10-04T14:19:21.090Z,2.47
2022-10-04T14:22:23.022Z,2.35
2022-10-04T14:25:01.582Z,2.50
2022-10-04T14:27:27.967Z,2.30
2022-10-04T14:30:18.500Z,2.30
2022-10-04T14:33:03.301Z,2.13
2022-10-04T14:35:42.292Z,2.08
2022-10-04T14:38:36.539Z,2.15
2022-10-04T14:41:24.567Z,2.03
2022-10-04T14:43:54.169Z,1.92
2022-10-04T14:46:54.717Z,2.10
2022-10-04T14:49:30.797Z,2.03
2022-10-04T14:52:34.086Z,1.83
2022-10-04T14:55:10.294Z,2.13
2022-10-04T14:57:58.665Z,2.00
2022-10-04T15:00:48.383Z,2.00
2022-10-04T15:03:33.120Z,1.80
2022-10-04T15:06:10.514Z,2.05
2022-10-04T15:08:39.678Z,2.15
2022-10-04T15:11:14.473Z,2.30
2022-10-04T15:13:55.973Z,1.90
2022-10-04T15:16:33.884Z,1.77
2022-10-04T15:19:23.293Z,1.77
2022-10-04T15:21:55.747Z,1.63
2022-10-04T15:24:25.652Z,1.80
2022-10-04T15:27:09.407Z,1.67
2022-10-04T15:29:58.021Z,1.60
2022-10-04T15:33:01.037Z,1.70
2022-10-04T15:35:39.646Z,2.20
2022-10-04T15:38:21.539Z,2.10
2022-10-04T15:41:02.531Z,1.77
2022-10-04T15:43:43.553Z,2.00
2022-10-04T15:46:51.853Z,1.75
2022-10-04T15:49:38.813Z,4.72
2022-10-04T15:52:32.880Z,3.28
2022-10-04T15:55:19.145Z,2.55
2022-10-04T15:57:45.601Z,2.10
2022-10-04T16:00:27.011Z,2.17
2022-10-04T16:03:21.569Z,2.10
2022-10-04T16:06:03.796Z,2.30
2022-10-04T16:08:49.870Z,2.22
2022-10-04T16:11:50.536Z,1.92
2022-10-04T16:14:42.136Z,1.80
2022-10-04T16:17:46.456Z,2.20
2022-10-04T16:20:34.410Z,2.35
2022-10-04T16:23:36.246Z,2.33
2022-10-04T16:26:18.365Z,2.30
2022-10-04T16:29:11.626Z,2.15
2022-10-04T16:32:13.322Z,2.50
2022-10-04T16:34:52.673Z,2.25
2022-10-04T16:37:19.140Z,2.60
2022-10-04T16:40:02.711Z,2.40
2022-10-04T16:42:29.332Z,2.53
2022-10-04T16:44:59.345Z,2.65
2022-10-04T16:47:39.645Z,2.72
2022-10-04T16:50:11.727Z,2.53
2022-10-04T16:52:59.198Z,2.50
2022-10-04T16:55:25.829Z,2.47
2022-10-04T16:58:26.296Z,2.47
2022-10-04T17:01:23.833Z,2.53
2022-10-04T17:04:20.387Z,2.80
2022-10-04T17:07:02.090Z,2.45
2022-10-04T17:09:46.255Z,2.67
2022-10-04T17:12:29.718Z,2.30
2022-10-04T17:14:58.388Z,2.42
2022-10-04T17:17:53.569Z,2.47
2022-10-04T17:20:29.726Z,3.75
2022-10-04T17:23:06.624Z,2.83
2022-10-04T17:26:07.303Z,2.65
2022-10-04T17:28:56.804Z,2.40
2022-10-04T17:31:52.395Z,2.88
2022-10-04T17:34:54.878Z,2.40
2022-10-04T17:37:53.216Z,2.80
2022-10-04T17:40:38.559Z,2.45
2022-10-04T17:43:24.939Z,2.30
2022-10-04T17:46:30.036Z,2.60
2022-10-04T17:49:41.600Z,2.65
2022-10-04T17:52:52.621Z,2.47
2022-10-04T17:55:28.602Z,2.30
2022-10-04T17:58:19.807Z,2.10
2022-10-04T18:01:07.829Z,2.22
2022-10-04T18:03:45.407Z,2.38
2022-10-04T18:06:17.923Z,2.35
2022-10-04T18:08:54.102Z,2.28
2022-10-04T18:11:20.725Z,2.60
2022-10-04T18:14:22.279Z,2.25
2022-10-04T18:16:54.613Z,2.80
2022-10-04T18:19:51.363Z,2.80
2022-10-04T18:22:20.505Z,2.67
2022-10-04T18:24:49.768Z,2.58
2022-10-04T18:27:24.554Z,3.20
2022-10-04T18:30:13.383Z,2.60
2022-10-04T18:32:48.705Z,2.20
2022-10-04T18:35:33.256Z,2.40
2022-10-04T18:38:05.828Z,3.30
2022-10-04T18:40:35.378Z,2.50
2022-10-04T18:43:01.997Z,2.78
2022-10-04T18:45:33.943Z,3.13
2022-10-04T18:48:13.731Z,2.95
2022-10-04T18:50:48.948Z,2.60
2022-10-04T18:53:41.994Z,2.90
2022-10-04T18:56:11.765Z,2.85
2022-10-04T18:59:20.222Z,2.65
2022-10-04T19:02:03.706Z,3.17
2022-10-04T19:04:59.941Z,2.78
2022-10-04T19:07:46.224Z,2.60
2022-10-04T19:10:22.093Z,2.40
2022-10-04T19:13:08.890Z,2.45
2022-10-04T19:15:57.225Z,2.80
2022-10-04T19:19:01.171Z,3.05
2022-10-04T19:21:44.502Z,3.47
2022-10-04T19:24:11.123Z,2.58
2022-10-04T19:26:40.882Z,3.40
2022-10-04T19:29:35.783Z,2.58
2022-10-04T19:32:12.447Z,2.80
2022-10-04T19:34:54.459Z,2.38
2022-10-04T19:37:30.367Z,2.88
2022-10-04T19:40:07.149Z,2.40
2022-10-04T19:43:03.952Z,3.15
2022-10-04T19:46:05.355Z,3.10
2022-10-04T19:48:45.590Z,3.15
2022-10-04T19:51:25.228Z,3.53
2022-10-04T19:54:00.127Z,2.88
2022-10-04T19:56:32.550Z,3.00
2022-10-04T19:59:18.553Z,3.50
2022-10-04T20:01:45.897Z,3.30
2022-10-04T20:04:35.451Z,2.95
2022-10-04T20:07:11.509Z,2.80
2022-10-04T20:09:37.990Z,3.17
2022-10-04T20:12:05.772Z,2.90
2022-10-04T20:14:32.456Z,3.47
2022-10-04T20:17:00.890Z,3.10
2022-10-04T20:19:27.526Z,3.15
2022-10-04T20:22:27.801Z,2.90
2022-10-04T20:24:56.394Z,3.38
2022-10-04T20:27:27.038Z,3.17
2022-10-04T20:29:59.025Z,3.17
2022-10-04T20:32:36.969Z,2.75
2022-10-04T20:35:11.476Z,3.03
2022-10-04T20:37:43.723Z,3.50
2022-10-04T20:40:39.242Z,3.70
2022-10-04T20:43:14.704Z,3.35
2022-10-04T20:45:54.240Z,3.05
2022-10-04T20:48:23.460Z,2.88
2022-10-04T20:53:20.097Z,3.20
2022-10-04T20:55:47.214Z,3.00
2022-10-04T20:58:32.036Z,2.95
2022-10-04T21:01:06.290Z,3.30
2022-10-04T21:03:32.876Z,2.47
2022-10-04T21:06:08.568Z,2.63
2022-10-04T21:08:36.624Z,3.33
2022-10-04T21:11:29.285Z,3.20
2022-10-04T21:14:01.975Z,3.97
2022-10-04T21:16:45.890Z,2.92
2022-10-04T21:19:48.367Z,3.05
2022-10-04T21:22:17.410Z,2.70
2022-10-04T21:27:37.423Z,3.15
2022-10-04T21:30:15.687Z,2.80
2022-10-04T21:32:42.426Z,2.78
2022-10-04T21:35:09.958Z,2.88
2022-10-04T21:37:36.512Z,3.17
2022-10-04T21:40:05.102Z,2.78
2022-10-04T21:42:31.625Z,3.05
2022-10-04T21:44:58.314Z,2.95
2022-10-04T21:47:24.853Z,3.22
2022-10-04T21:49:55.153Z,3.42
2022-10-04T21:52:21.983Z,3.70
2022-10-04T21:54:48.391Z,4.05
2022-10-04T21:57:14.958Z,3.97
2022-10-04T21:59:41.471Z,4.25
2022-10-04T22:02:08.288Z,4.20
2022-10-04T22:04:34.947Z,4.28
2022-10-04T22:07:01.648Z,3.78
2022-10-04T22:09:29.097Z,4.68
2022-10-04T22:11:55.571Z,3.20
2022-10-04T22:14:21.975Z,3.97
2022-10-04T22:16:49.027Z,4.85
2022-10-04T22:19:15.961Z,4.57
2022-10-04T22:21:42.374Z,3.92
2022-10-04T22:24:17.623Z,4.85
2022-10-04T22:29:16.731Z,4.00
2022-10-04T22:31:52.600Z,4.70
2022-10-04T22:34:21.145Z,3.90
2022-10-04T22:36:49.737Z,4.38
2022-10-04T22:39:20.300Z,4.22
2022-10-04T22:41:48.458Z,4.18
2022-10-04T22:44:18.628Z,4.75
2022-10-04T22:46:48.323Z,4.78
2022-10-04T22:49:21.739Z,4.28
2022-10-04T22:51:50.385Z,4.70
2022-10-04T22:54:19.607Z,4.68
2022-10-04T22:56:47.107Z,4.90
2022-10-04T22:59:16.529Z,4.18
2022-10-04T23:01:43.807Z,4.70
2022-10-04T23:04:20.975Z,4.40
2022-10-04T23:06:48.416Z,5.60
2022-10-04T23:09:15.141Z,4.95
2022-10-04T23:11:42.136Z,4.38
2022-10-04T23:14:09.011Z,4.30
2022-10-04T23:16:36.553Z,4.70
2022-10-04T23:19:11.813Z,3.80
2022-10-04T23:21:40.034Z,4.30
2022-10-04T23:24:21.383Z,3.72
2022-10-04T23:26:52.958Z,3.95
2022-10-04T23:29:26.478Z,4.30
2022-10-04T23:31:53.541Z,4.25
2022-10-04T23:34:30.637Z,4.03
2022-10-04T23:36:57.950Z,4.78
2022-10-04T23:39:30.649Z,3.83
2022-10-04T23:41:57.995Z,4.50
2022-10-04T23:44:33.281Z,4.32
2022-10-04T23:47:00.084Z,3.67
2022-10-04T23:49:26.813Z,4.15
2022-10-04T23:51:58.711Z,3.97
2022-10-04T23:54:25.237Z,3.42
2022-10-04T23:56:52.420Z,3.85
2022-10-04T23:59:22.235Z,4.22
